sensor_id;sensor_type;location;lat;lon;timestamp;P1;durP1;ratioP1;P2;durP2;ratioP2
76591;SDS011;65481;47.600;19.682;2023-02-10T00:04:11;79.68;;;31.90;;
76591;SDS011;65481;47.600;19.682;2023-02-10T00:09:14;85.68;;;36.25;;
76591;SDS011;65481;47.600;19.682;2023-02-10T00:14:15;63.80;;;30.60;;
76591;SDS011;65481;47.600;19.682;2023-02-10T00:19:17;76.97;;;31.98;;
76591;SDS011;65481;47.600;19.682;2023-02-10T00:24:18;67.10;;;29.83;;
76591;SDS011;65481;47.600;19.682;2023-02-10T00:29:19;59.72;;;28.90;;
76591;SDS011;65481;47.600;19.682;2023-02-10T00:34:20;87.10;;;32.90;;
76591;SDS011;65481;47.600;19.682;2023-02-10T00:39:21;65.25;;;29.90;;
76591;SDS011;65481;47.600;19.682;2023-02-10T00:44:21;73.72;;;34.45;;
76591;SDS011;65481;47.600;19.682;2023-02-10T00:49:22;62.72;;;29.48;;
76591;SDS011;65481;47.600;19.682;2023-02-10T00:54:22;69.07;;;32.15;;
76591;SDS011;65481;47.600;19.682;2023-02-10T00:59:23;72.07;;;30.52;;
76591;SDS011;65481;47.600;19.682;2023-02-10T01:04:23;63.95;;;30.52;;
76591;SDS011;65481;47.600;19.682;2023-02-10T01:09:24;63.25;;;27.90;;
76591;SDS011;65481;47.600;19.682;2023-02-10T01:14:24;62.97;;;29.08;;
76591;SDS011;65481;47.600;19.682;2023-02-10T01:19:26;57.30;;;26.45;;
76591;SDS011;65481;47.600;19.682;2023-02-10T01:24:26;58.60;;;27.75;;
76591;SDS011;65481;47.600;19.682;2023-02-10T01:29:27;53.00;;;26.73;;
76591;SDS011;65481;47.600;19.682;2023-02-10T01:34:27;54.90;;;26.55;;
76591;SDS011;65481;47.600;19.682;2023-02-10T01:39:28;53.05;;;26.10;;
76591;SDS011;65481;47.600;19.682;2023-02-10T01:49:30;54.95;;;26.65;;
76591;SDS011;65481;47.600;19.682;2023-02-10T01:54:40;59.40;;;26.77;;
76591;SDS011;65481;47.600;19.682;2023-02-10T01:59:45;53.72;;;26.63;;
76591;SDS011;65481;47.600;19.682;2023-02-10T02:09:47;49.47;;;23.52;;
76591;SDS011;65481;47.600;19.682;2023-02-10T02:15:34;53.85;;;23.48;;
76591;SDS011;65481;47.600;19.682;2023-02-10T02:36:39;56.13;;;24.98;;
76591;SDS011;65481;47.600;19.682;2023-02-10T02:41:44;55.85;;;24.85;;
76591;SDS011;65481;47.600;19.682;2023-02-10T02:46:53;61.10;;;24.83;;
76591;SDS011;65481;47.600;19.682;2023-02-10T02:52:12;53.78;;;23.85;;
76591;SDS011;65481;47.600;19.682;2023-02-10T02:57:53;53.28;;;24.15;;
76591;SDS011;65481;47.600;19.682;2023-02-10T03:02:51;50.75;;;24.38;;
76591;SDS011;65481;47.600;19.682;2023-02-10T03:07:56;59.80;;;24.02;;
76591;SDS011;65481;47.600;19.682;2023-02-10T03:12:56;52.80;;;25.83;;
76591;SDS011;65481;47.600;19.682;2023-02-10T03:17:57;54.35;;;24.98;;
76591;SDS011;65481;47.600;19.682;2023-02-10T03:22:57;54.85;;;24.40;;
76591;SDS011;65481;47.600;19.682;2023-02-10T03:27:58;60.30;;;25.27;;
76591;SDS011;65481;47.600;19.682;2023-02-10T03:32:58;48.13;;;23.90;;
76591;SDS011;65481;47.600;19.682;2023-02-10T03:37:59;79.32;;;30.02;;
76591;SDS011;65481;47.600;19.682;2023-02-10T03:43:00;55.67;;;23.30;;
76591;SDS011;65481;47.600;19.682;2023-02-10T03:48:00;49.67;;;24.02;;
76591;SDS011;65481;47.600;19.682;2023-02-10T03:53:01;53.60;;;22.35;;
76591;SDS011;65481;47.600;19.682;2023-02-10T03:58:01;55.40;;;25.02;;
76591;SDS011;65481;47.600;19.682;2023-02-10T04:03:02;59.65;;;25.85;;
76591;SDS011;65481;47.600;19.682;2023-02-10T04:08:02;61.65;;;28.50;;
76591;SDS011;65481;47.600;19.682;2023-02-10T04:13:03;63.42;;;27.48;;
76591;SDS011;65481;47.600;19.682;2023-02-10T04:18:04;59.08;;;24.58;;
76591;SDS011;65481;47.600;19.682;2023-02-10T04:23:04;55.50;;;24.27;;
76591;SDS011;65481;47.600;19.682;2023-02-10T04:28:05;48.38;;;22.67;;
76591;SDS011;65481;47.600;19.682;2023-02-10T04:33:05;47.30;;;19.60;;
76591;SDS011;65481;47.600;19.682;2023-02-10T04:38:06;52.63;;;22.33;;
76591;SDS011;65481;47.600;19.682;2023-02-10T04:43:06;53.42;;;24.25;;
76591;SDS011;65481;47.600;19.682;2023-02-10T04:48:07;64.63;;;26.70;;
76591;SDS011;65481;47.600;19.682;2023-02-10T04:53:08;52.25;;;22.63;;
76591;SDS011;65481;47.600;19.682;2023-02-10T04:58:09;51.30;;;24.40;;
76591;SDS011;65481;47.600;19.682;2023-02-10T05:03:10;74.40;;;34.30;;
76591;SDS011;65481;47.600;19.682;2023-02-10T05:08:10;49.53;;;23.83;;
76591;SDS011;65481;47.600;19.682;2023-02-10T05:13:11;47.80;;;20.20;;
76591;SDS011;65481;47.600;19.682;2023-02-10T05:18:11;47.88;;;19.30;;
76591;SDS011;65481;47.600;19.682;2023-02-10T05:23:12;39.80;;;19.38;;
76591;SDS011;65481;47.600;19.682;2023-02-10T05:28:12;48.88;;;19.55;;
76591;SDS011;65481;47.600;19.682;2023-02-10T05:33:13;47.20;;;19.20;;
76591;SDS011;65481;47.600;19.682;2023-02-10T05:38:13;45.22;;;18.48;;
76591;SDS011;65481;47.600;19.682;2023-02-10T05:43:14;40.38;;;17.45;;
76591;SDS011;65481;47.600;19.682;2023-02-10T05:48:14;45.70;;;16.80;;
76591;SDS011;65481;47.600;19.682;2023-02-10T05:53:15;41.13;;;17.73;;
76591;SDS011;65481;47.600;19.682;2023-02-10T05:58:15;38.67;;;17.23;;
76591;SDS011;65481;47.600;19.682;2023-02-10T06:03:16;48.47;;;19.05;;
76591;SDS011;65481;47.600;19.682;2023-02-10T06:08:17;35.92;;;16.63;;
76591;SDS011;65481;47.600;19.682;2023-02-10T06:13:18;43.70;;;18.90;;
76591;SDS011;65481;47.600;19.682;2023-02-10T06:18:19;40.17;;;18.20;;
76591;SDS011;65481;47.600;19.682;2023-02-10T06:23:19;42.90;;;19.83;;
76591;SDS011;65481;47.600;19.682;2023-02-10T06:28:24;57.00;;;24.63;;
76591;SDS011;65481;47.600;19.682;2023-02-10T06:33:25;74.40;;;31.40;;
76591;SDS011;65481;47.600;19.682;2023-02-10T06:38:26;68.45;;;28.23;;
76591;SDS011;65481;47.600;19.682;2023-02-10T06:43:26;82.72;;;32.13;;
76591;SDS011;65481;47.600;19.682;2023-02-10T06:48:27;56.30;;;24.92;;
76591;SDS011;65481;47.600;19.682;2023-02-10T06:53:27;61.28;;;25.95;;
76591;SDS011;65481;47.600;19.682;2023-02-10T06:58:28;72.13;;;31.42;;
76591;SDS011;65481;47.600;19.682;2023-02-10T07:03:28;61.17;;;26.90;;
76591;SDS011;65481;47.600;19.682;2023-02-10T07:08:29;59.67;;;26.77;;
76591;SDS011;65481;47.600;19.682;2023-02-10T07:13:29;57.15;;;28.08;;
76591;SDS011;65481;47.600;19.682;2023-02-10T07:18:30;56.65;;;26.27;;
76591;SDS011;65481;47.600;19.682;2023-02-10T07:23:30;58.22;;;26.33;;
76591;SDS011;65481;47.600;19.682;2023-02-10T07:28:31;56.13;;;27.88;;
76591;SDS011;65481;47.600;19.682;2023-02-10T07:33:32;62.17;;;28.13;;
76591;SDS011;65481;47.600;19.682;2023-02-10T07:38:33;58.45;;;29.52;;
76591;SDS011;65481;47.600;19.682;2023-02-10T07:43:34;52.13;;;27.02;;
76591;SDS011;65481;47.600;19.682;2023-02-10T07:48:35;60.15;;;29.13;;
76591;SDS011;65481;47.600;19.682;2023-02-10T07:53:35;46.88;;;25.40;;
76591;SDS011;65481;47.600;19.682;2023-02-10T07:58:37;43.88;;;23.45;;
76591;SDS011;65481;47.600;19.682;2023-02-10T08:03:37;48.67;;;25.27;;
76591;SDS011;65481;47.600;19.682;2023-02-10T08:08:38;46.65;;;24.92;;
76591;SDS011;65481;47.600;19.682;2023-02-10T08:13:39;43.03;;;24.08;;
76591;SDS011;65481;47.600;19.682;2023-02-10T08:18:39;43.33;;;25.52;;
76591;SDS011;65481;47.600;19.682;2023-02-10T08:23:41;42.30;;;24.00;;
76591;SDS011;65481;47.600;19.682;2023-02-10T08:28:41;46.08;;;25.35;;
76591;SDS011;65481;47.600;19.682;2023-02-10T08:33:41;47.85;;;25.98;;
76591;SDS011;65481;47.600;19.682;2023-02-10T08:38:43;47.22;;;26.75;;
76591;SDS011;65481;47.600;19.682;2023-02-10T08:43:45;46.95;;;24.85;;
76591;SDS011;65481;47.600;19.682;2023-02-10T08:48:45;41.35;;;26.40;;
76591;SDS011;65481;47.600;19.682;2023-02-10T08:53:46;48.97;;;26.83;;
76591;SDS011;65481;47.600;19.682;2023-02-10T08:58:47;45.17;;;27.02;;
76591;SDS011;65481;47.600;19.682;2023-02-10T09:03:48;42.72;;;24.60;;
76591;SDS011;65481;47.600;19.682;2023-02-10T09:08:49;41.35;;;23.98;;
76591;SDS011;65481;47.600;19.682;2023-02-10T09:13:52;35.88;;;22.33;;
76591;SDS011;65481;47.600;19.682;2023-02-10T09:18:53;37.75;;;21.85;;
76591;SDS011;65481;47.600;19.682;2023-02-10T09:23:54;30.38;;;19.75;;
76591;SDS011;65481;47.600;19.682;2023-02-10T09:28:54;35.55;;;20.88;;
76591;SDS011;65481;47.600;19.682;2023-02-10T09:33:55;29.02;;;18.00;;
76591;SDS011;65481;47.600;19.682;2023-02-10T09:38:56;22.52;;;14.48;;
76591;SDS011;65481;47.600;19.682;2023-02-10T09:44:03;22.92;;;14.05;;
76591;SDS011;65481;47.600;19.682;2023-02-10T09:54:29;22.33;;;13.95;;
76591;SDS011;65481;47.600;19.682;2023-02-10T09:59:31;22.02;;;14.00;;
76591;SDS011;65481;47.600;19.682;2023-02-10T10:04:35;24.20;;;15.23;;
76591;SDS011;65481;47.600;19.682;2023-02-10T10:09:40;22.80;;;14.65;;
76591;SDS011;65481;47.600;19.682;2023-02-10T10:14:43;27.02;;;15.70;;
76591;SDS011;65481;47.600;19.682;2023-02-10T10:30:58;23.15;;;13.82;;
76591;SDS011;65481;47.600;19.682;2023-02-10T10:35:43;22.52;;;12.85;;
76591;SDS011;65481;47.600;19.682;2023-02-10T10:40:44;18.25;;;12.25;;
76591;SDS011;65481;47.600;19.682;2023-02-10T10:45:48;16.73;;;11.73;;
76591;SDS011;65481;47.600;19.682;2023-02-10T10:50:51;19.00;;;12.57;;
76591;SDS011;65481;47.600;19.682;2023-02-10T10:55:53;21.50;;;13.48;;
76591;SDS011;65481;47.600;19.682;2023-02-10T11:00:57;22.15;;;13.30;;
76591;SDS011;65481;47.600;19.682;2023-02-10T11:11:10;22.13;;;13.85;;
76591;SDS011;65481;47.600;19.682;2023-02-10T11:16:15;22.20;;;13.80;;
76591;SDS011;65481;47.600;19.682;2023-02-10T11:21:16;23.55;;;14.73;;
76591;SDS011;65481;47.600;19.682;2023-02-10T11:26:18;24.40;;;15.27;;
76591;SDS011;65481;47.600;19.682;2023-02-10T11:36:27;25.17;;;16.00;;
76591;SDS011;65481;47.600;19.682;2023-02-10T11:46:39;27.73;;;18.05;;
76591;SDS011;65481;47.600;19.682;2023-02-10T11:51:39;25.75;;;15.65;;
76591;SDS011;65481;47.600;19.682;2023-02-10T11:57:11;27.55;;;15.57;;
76591;SDS011;65481;47.600;19.682;2023-02-10T12:02:56;28.30;;;15.90;;
76591;SDS011;65481;47.600;19.682;2023-02-10T12:24:36;26.10;;;15.90;;
76591;SDS011;65481;47.600;19.682;2023-02-10T12:30:09;27.85;;;17.17;;
76591;SDS011;65481;47.600;19.682;2023-02-10T12:35:51;27.10;;;16.77;;
76591;SDS011;65481;47.600;19.682;2023-02-10T12:56:45;27.43;;;17.13;;
76591;SDS011;65481;47.600;19.682;2023-02-10T13:01:51;26.98;;;16.98;;
76591;SDS011;65481;47.600;19.682;2023-02-10T13:12:18;28.05;;;17.15;;
76591;SDS011;65481;47.600;19.682;2023-02-10T13:17:20;28.08;;;15.63;;
76591;SDS011;65481;47.600;19.682;2023-02-10T13:22:32;27.90;;;15.68;;
76591;SDS011;65481;47.600;19.682;2023-02-10T13:27:52;28.25;;;16.13;;
76591;SDS011;65481;47.600;19.682;2023-02-10T13:38:42;27.90;;;15.63;;
76591;SDS011;65481;47.600;19.682;2023-02-10T13:43:44;22.15;;;12.95;;
76591;SDS011;65481;47.600;19.682;2023-02-10T13:48:50;22.63;;;13.88;;
76591;SDS011;65481;47.600;19.682;2023-02-10T13:53:55;25.27;;;13.82;;
76591;SDS011;65481;47.600;19.682;2023-02-10T14:03:56;23.73;;;13.23;;
76591;SDS011;65481;47.600;19.682;2023-02-10T14:09:02;26.80;;;14.27;;
76591;SDS011;65481;47.600;19.682;2023-02-10T14:14:31;24.27;;;13.27;;
76591;SDS011;65481;47.600;19.682;2023-02-10T14:19:34;22.27;;;13.48;;
76591;SDS011;65481;47.600;19.682;2023-02-10T14:24:42;23.85;;;13.32;;
76591;SDS011;65481;47.600;19.682;2023-02-10T14:29:51;28.75;;;13.98;;
76591;SDS011;65481;47.600;19.682;2023-02-10T14:34:55;22.50;;;12.85;;
76591;SDS011;65481;47.600;19.682;2023-02-10T14:45:03;25.30;;;13.73;;
76591;SDS011;65481;47.600;19.682;2023-02-10T14:50:05;23.77;;;12.40;;
76591;SDS011;65481;47.600;19.682;2023-02-10T15:00:27;24.23;;;13.57;;
76591;SDS011;65481;47.600;19.682;2023-02-10T15:05:33;23.42;;;12.65;;
76591;SDS011;65481;47.600;19.682;2023-02-10T15:10:41;25.83;;;12.60;;
76591;SDS011;65481;47.600;19.682;2023-02-10T15:15:47;23.02;;;12.18;;
76591;SDS011;65481;47.600;19.682;2023-02-10T15:20:50;25.27;;;12.38;;
76591;SDS011;65481;47.600;19.682;2023-02-10T15:26:13;23.23;;;12.73;;
76591;SDS011;65481;47.600;19.682;2023-02-10T15:31:26;22.50;;;11.75;;
76591;SDS011;65481;47.600;19.682;2023-02-10T15:46:31;23.92;;;12.77;;
76591;SDS011;65481;47.600;19.682;2023-02-10T15:51:32;27.70;;;13.68;;
76591;SDS011;65481;47.600;19.682;2023-02-10T15:56:55;29.13;;;14.63;;
76591;SDS011;65481;47.600;19.682;2023-02-10T16:02:01;23.55;;;13.70;;
76591;SDS011;65481;47.600;19.682;2023-02-10T16:07:04;28.00;;;14.07;;
76591;SDS011;65481;47.600;19.682;2023-02-10T16:12:05;28.25;;;14.02;;
76591;SDS011;65481;47.600;19.682;2023-02-10T16:17:06;25.90;;;13.02;;
76591;SDS011;65481;47.600;19.682;2023-02-10T16:22:09;30.15;;;13.13;;
76591;SDS011;65481;47.600;19.682;2023-02-10T16:27:10;25.85;;;13.68;;
76591;SDS011;65481;47.600;19.682;2023-02-10T16:32:12;27.58;;;13.50;;
76591;SDS011;65481;47.600;19.682;2023-02-10T16:37:17;27.02;;;13.25;;
76591;SDS011;65481;47.600;19.682;2023-02-10T16:42:19;25.20;;;13.52;;
76591;SDS011;65481;47.600;19.682;2023-02-10T16:47:21;27.98;;;13.82;;
76591;SDS011;65481;47.600;19.682;2023-02-10T16:52:22;28.13;;;13.90;;
76591;SDS011;65481;47.600;19.682;2023-02-10T16:57:23;30.13;;;15.02;;
76591;SDS011;65481;47.600;19.682;2023-02-10T17:02:23;26.95;;;14.65;;
76591;SDS011;65481;47.600;19.682;2023-02-10T17:07:24;31.42;;;15.93;;
76591;SDS011;65481;47.600;19.682;2023-02-10T17:12:25;32.05;;;14.35;;
76591;SDS011;65481;47.600;19.682;2023-02-10T17:17:26;29.25;;;13.80;;
76591;SDS011;65481;47.600;19.682;2023-02-10T17:22:27;27.83;;;15.40;;
76591;SDS011;65481;47.600;19.682;2023-02-10T17:27:28;27.90;;;14.65;;
76591;SDS011;65481;47.600;19.682;2023-02-10T17:32:29;34.22;;;16.42;;
76591;SDS011;65481;47.600;19.682;2023-02-10T17:37:30;38.33;;;17.40;;
76591;SDS011;65481;47.600;19.682;2023-02-10T17:42:31;36.28;;;19.20;;
76591;SDS011;65481;47.600;19.682;2023-02-10T17:47:32;35.70;;;16.75;;
76591;SDS011;65481;47.600;19.682;2023-02-10T17:52:33;33.60;;;16.05;;
76591;SDS011;65481;47.600;19.682;2023-02-10T17:57:34;34.83;;;14.73;;
76591;SDS011;65481;47.600;19.682;2023-02-10T18:02:35;35.10;;;16.05;;
76591;SDS011;65481;47.600;19.682;2023-02-10T18:07:36;34.22;;;14.93;;
76591;SDS011;65481;47.600;19.682;2023-02-10T18:12:38;38.92;;;15.75;;
76591;SDS011;65481;47.600;19.682;2023-02-10T18:17:39;32.92;;;14.60;;
76591;SDS011;65481;47.600;19.682;2023-02-10T18:22:43;31.73;;;15.23;;
76591;SDS011;65481;47.600;19.682;2023-02-10T18:27:47;28.30;;;13.88;;
76591;SDS011;65481;47.600;19.682;2023-02-10T18:32:48;31.42;;;13.90;;
76591;SDS011;65481;47.600;19.682;2023-02-10T18:37:49;31.33;;;14.95;;
76591;SDS011;65481;47.600;19.682;2023-02-10T18:42:50;31.35;;;15.23;;
76591;SDS011;65481;47.600;19.682;2023-02-10T18:47:52;27.85;;;13.35;;
76591;SDS011;65481;47.600;19.682;2023-02-10T18:52:53;25.55;;;12.73;;
76591;SDS011;65481;47.600;19.682;2023-02-10T18:57:54;29.23;;;14.57;;
76591;SDS011;65481;47.600;19.682;2023-02-10T19:02:55;29.92;;;14.48;;
76591;SDS011;65481;47.600;19.682;2023-02-10T19:07:56;31.75;;;13.55;;
76591;SDS011;65481;47.600;19.682;2023-02-10T19:12:57;28.58;;;14.02;;
76591;SDS011;65481;47.600;19.682;2023-02-10T19:17:58;31.77;;;15.85;;
76591;SDS011;65481;47.600;19.682;2023-02-10T19:22:59;32.20;;;16.45;;
76591;SDS011;65481;47.600;19.682;2023-02-10T19:27:59;34.05;;;17.52;;
76591;SDS011;65481;47.600;19.682;2023-02-10T19:33:00;34.05;;;17.45;;
76591;SDS011;65481;47.600;19.682;2023-02-10T19:38:03;37.10;;;17.92;;
76591;SDS011;65481;47.600;19.682;2023-02-10T19:43:05;33.95;;;18.08;;
76591;SDS011;65481;47.600;19.682;2023-02-10T19:48:06;38.92;;;18.75;;
76591;SDS011;65481;47.600;19.682;2023-02-10T19:53:07;35.92;;;18.17;;
76591;SDS011;65481;47.600;19.682;2023-02-10T19:58:07;35.03;;;16.55;;
76591;SDS011;65481;47.600;19.682;2023-02-10T20:03:09;32.90;;;16.42;;
76591;SDS011;65481;47.600;19.682;2023-02-10T20:08:14;37.97;;;18.38;;
76591;SDS011;65481;47.600;19.682;2023-02-10T20:13:16;38.60;;;16.85;;
76591;SDS011;65481;47.600;19.682;2023-02-10T20:18:17;37.70;;;17.80;;
76591;SDS011;65481;47.600;19.682;2023-02-10T20:23:19;36.92;;;18.75;;
76591;SDS011;65481;47.600;19.682;2023-02-10T20:28:20;53.17;;;23.45;;
76591;SDS011;65481;47.600;19.682;2023-02-10T20:33:21;109.22;;;49.80;;
76591;SDS011;65481;47.600;19.682;2023-02-10T20:38:22;114.10;;;51.08;;
76591;SDS011;65481;47.600;19.682;2023-02-10T20:43:23;108.10;;;45.60;;
76591;SDS011;65481;47.600;19.682;2023-02-10T20:48:25;107.00;;;45.10;;
76591;SDS011;65481;47.600;19.682;2023-02-10T20:53:26;108.40;;;46.10;;
76591;SDS011;65481;47.600;19.682;2023-02-10T20:58:28;127.15;;;50.50;;
76591;SDS011;65481;47.600;19.682;2023-02-10T21:03:30;113.85;;;48.42;;
76591;SDS011;65481;47.600;19.682;2023-02-10T21:08:33;113.63;;;46.20;;
76591;SDS011;65481;47.600;19.682;2023-02-10T21:13:35;106.10;;;47.88;;
76591;SDS011;65481;47.600;19.682;2023-02-10T21:18:38;68.40;;;32.28;;
76591;SDS011;65481;47.600;19.682;2023-02-10T21:23:40;68.25;;;30.17;;
76591;SDS011;65481;47.600;19.682;2023-02-10T21:28:41;73.50;;;33.42;;
76591;SDS011;65481;47.600;19.682;2023-02-10T21:33:42;67.88;;;32.20;;
76591;SDS011;65481;47.600;19.682;2023-02-10T21:38:43;75.20;;;35.50;;
76591;SDS011;65481;47.600;19.682;2023-02-10T21:43:46;78.45;;;34.13;;
76591;SDS011;65481;47.600;19.682;2023-02-10T21:48:47;72.90;;;32.75;;
76591;SDS011;65481;47.600;19.682;2023-02-10T21:53:48;70.43;;;29.33;;
76591;SDS011;65481;47.600;19.682;2023-02-10T21:58:49;55.15;;;25.88;;
76591;SDS011;65481;47.600;19.682;2023-02-10T22:03:49;53.45;;;24.58;;
76591;SDS011;65481;47.600;19.682;2023-02-10T22:08:50;66.82;;;30.30;;
76591;SDS011;65481;47.600;19.682;2023-02-10T22:13:51;70.55;;;31.50;;
76591;SDS011;65481;47.600;19.682;2023-02-10T22:18:51;79.20;;;36.13;;
76591;SDS011;65481;47.600;19.682;2023-02-10T22:23:52;69.72;;;32.17;;
76591;SDS011;65481;47.600;19.682;2023-02-10T22:28:54;78.38;;;34.03;;
76591;SDS011;65481;47.600;19.682;2023-02-10T22:33:55;78.97;;;35.88;;
76591;SDS011;65481;47.600;19.682;2023-02-10T22:38:58;69.47;;;32.05;;
76591;SDS011;65481;47.600;19.682;2023-02-10T22:43:59;73.50;;;30.35;;
76591;SDS011;65481;47.600;19.682;2023-02-10T22:49:00;53.42;;;26.15;;
76591;SDS011;65481;47.600;19.682;2023-02-10T22:54:03;43.85;;;20.52;;
76591;SDS011;65481;47.600;19.682;2023-02-10T22:59:05;46.10;;;22.05;;
76591;SDS011;65481;47.600;19.682;2023-02-10T23:04:07;47.38;;;23.33;;
76591;SDS011;65481;47.600;19.682;2023-02-10T23:09:10;48.75;;;22.85;;
76591;SDS011;65481;47.600;19.682;2023-02-10T23:14:12;55.47;;;23.17;;
76591;SDS011;65481;47.600;19.682;2023-02-10T23:19:12;57.67;;;25.75;;
76591;SDS011;65481;47.600;19.682;2023-02-10T23:24:13;61.65;;;26.75;;
76591;SDS011;65481;47.600;19.682;2023-02-10T23:29:13;60.65;;;28.20;;
76591;SDS011;65481;47.600;19.682;2023-02-10T23:34:17;52.83;;;23.95;;
76591;SDS011;65481;47.600;19.682;2023-02-10T23:39:18;59.83;;;27.02;;
76591;SDS011;65481;47.600;19.682;2023-02-10T23:44:18;64.72;;;30.20;;
76591;SDS011;65481;47.600;19.682;2023-02-10T23:49:19;63.63;;;27.60;;
76591;SDS011;65481;47.600;19.682;2023-02-10T23:54:19;64.93;;;28.45;;
76591;SDS011;65481;47.600;19.682;2023-02-10T23:59:20;64.30;;;29.92;;
